• Join FlightAware (Why Join?)
  • Login
  • US Flag 
03:39PM EDT


 

Airport Tracker/Info


-or-


 

Live Flight TrackerFlight Track Log ✈ JBU1203 ✈ 29-Jul-2013 ✈ KJFK - TJSJ / SJU

Flight Track Log - Related Links

Times and Time Zones

All times are in EDT time to prevent confusion due to time zone crossing. See the JBU1203 flight status page for this flight to view local times or setup timezone preferences in your user account.

Time Position Orientation Groundspeed Altitude Reporting Facility
EDT Latitude Longitude Course Direction KTS MPH feet Rate Location/Type
11:34PM 40.6500 -73.8333 128° Southeast 169 194 1,400  Level New York TRACON
11:36PM 40.4455 -73.4369 128° Southeast  Level FlightAware Approximate
11:36PM 40.5569 -73.7731 154° Southeast 166 191 6,800  Level New York Center
11:37PM 40.3705 -73.3140 131° Southeast  Level FlightAware Approximate
11:37PM 40.5217 -73.6786 116° Southeast 243 280 9,600  Level New York Center
11:38PM 40.2931 -73.1937 128° Southeast  Level FlightAware Approximate
11:38PM 40.4764 -73.5758 120° Southeast 315 362 11,200  Level New York Center
11:39PM 40.2190 -73.0700 128° Southeast  Level FlightAware Approximate
11:39PM 40.4228 -73.4592 121° Southeast 361 415 12,800  Level New York Center
11:40PM 40.3672 -73.3344 120° Southeast 387 445 15,200 1,980 Climbing New York Center
11:41PM 40.3072 -73.2125 123° Southeast 399 459 16,900 1,800 Climbing New York Center
11:42PM 40.2367 -73.0958 128° Southeast 411 473 18,800 1,740 Climbing New York Center
11:43PM 40.1642 -72.9711 127° Southeast 416 479 20,400 1,560 Climbing New York Center
11:44PM 40.0894 -72.8439 127° Southeast 429 494 22,000 1,260 Climbing New York Center
11:45PM 40.0164 -72.7225 128° Southeast 434 499 23,000 1,020 Climbing New York Center
11:46PM 39.9414 -72.5958 128° Southeast 429 494 24,100 1,140 Climbing New York Center
11:47PM 39.8661 -72.4694 128° Southeast 435 501 25,300 1,140 Climbing New York Center
11:48PM 39.7719 -72.3669 140° Southeast 435 501 26,400 1,140 Climbing New York Center
11:49PM 39.6533 -72.3508 174° South 411 473 27,600 1,140 Climbing New York Center
11:50PM 39.5322 -72.3561 182° South 417 480 28,800 1,020 Climbing New York Center
11:51PM 39.4175 -72.3589 181° South 423 487 29,700 1,200 Climbing New York Center
11:52PM 39.2944 -72.3614 181° South 429 494 31,200 1,620 Climbing New York Center
11:53PM 39.1839 -72.3669 182° South 422 486 33,000 900 Climbing New York Center
11:54PM 39.0756 -72.3672 180° South 408 470 33,000  Level New York Center
11:55PM 38.9628 -72.3753 183° South 402 463 33,000  Level New York Center
11:56PM 38.8525 -72.3700 178° South 408 470 33,000  Level New York Center
11:57PM 38.7378 -72.3728 181° South 408 470 33,000  Level New York Center
11:58PM 38.6250 -72.3783 182° South 401 461 33,000  Level New York Center
11:59PM 38.5125 -72.3731 178° South 401 461 33,000  Level New York Center
12:00AM 38.3997 -72.3786 182° South 401 461 33,000  Level New York Center
12:01AM 38.2850 -72.3758 179° South 406 467 33,000  Level New York Center
12:02AM 38.1722 -72.3839 183° South 406 467 33,000  Level New York Center
12:03AM 38.0597 -72.3814 179° South 406 467 33,000 -60 Level New York Center
12:04AM 37.9472 -72.3814 180° South 406 467 32,900  Descending New York Center
12:05AM 37.8322 -72.3842 181° South 406 467 33,000  Climbing New York Center
12:06AM 37.7133 -72.3922 183° South 412 474 33,000  Level New York Center
12:07AM 37.6214 -72.3953 182° South 412 474 33,000  Level New York Center
12:08AM 37.5089 -72.3900 178° South 392 451 33,000 -60 Level New York Center
12:09AM 37.3881 -72.3900 180° South 409 471 32,900  Descending New York Center
12:10AM 37.2753 -72.3903 180° South 414 476 33,000  Climbing New York Center
12:11AM 37.1625 -72.3928 181° South 414 476 33,000  Level New York Center
12:12AM 37.0458 -72.3903 179° South 419 482 33,000  Level New York Center
12:13AM 36.9311 -72.3931 181° South 424 488 33,000  Level New York Center
12:14AM 36.8142 -72.3956 181° South 424 488 33,000  Level New York Center
12:15AM 36.6931 -72.3956 180° South 424 488 33,000  Level New York Center
12:16AM 36.5764 -72.3956 180° South 426 490 33,000  Level New York Center
12:17AM 36.4553 -72.3981 181° South 426 490 33,000  Level New York Center
12:18AM 36.3322 -72.4006 181° South 431 496 33,000 -60 Level New York Center
12:19AM 36.2178 -72.3853 174° South 431 496 32,900  Descending New York Center
12:20AM 36.0994 -72.3314 160° South 442 509 33,000  Climbing New York Center
12:21AM 35.9792 -72.2750 159° South 449 517 33,000  Level New York Center
12:22AM 35.8692 -72.2394 165° South 438 504 33,000  Level New York Center
12:23AM 35.7497 -72.2653 190° South 417 480 33,000  Level New York Center
12:24AM 35.6369 -72.2911 191° South 417 480 33,000  Level New York Center
12:25AM 35.5197 -72.3144 189° South 429 494 33,000  Level New York Center
12:26AM 35.4067 -72.3375 189° South 429 494 33,000  Level New York Center
12:27AM 35.2917 -72.3631 190° South 423 487 33,000  Level New York Center
12:28AM 35.1767 -72.3836 188° South 435 501 33,000  Level New York Center
12:30AM 34.9802 -72.3334 168° South  Level FlightAware Approximate
12:30AM 35.0500 -72.4167 175° South 425 489 33,000  Level New York Oceanic (ODAPS)
12:37AM 34.1019 -72.3128 175° South 425 489 33,000  Level FlightAware Transoceanic
12:38AM 33.9833 -72.3000 167° South 425 489 33,000  Level FlightAware Transoceanic
12:39AM 33.8564 -72.2653 167° South 425 489 33,000  Level FlightAware Transoceanic
12:40AM 33.7295 -72.2306 167° South 425 489 33,000  Level FlightAware Transoceanic
12:40AM 33.9833 -72.3000 167° South 434 499 33,000  Level New York Oceanic (ODAPS)
12:41AM 33.6026 -72.1961 167° South 425 489 33,000  Level FlightAware Transoceanic
12:42AM 33.4756 -72.1616 167° South 425 489 33,000  Level FlightAware Transoceanic
12:43AM 33.3487 -72.1273 167° South 425 489 33,000  Level FlightAware Transoceanic
12:44AM 33.2217 -72.0930 167° South 425 489 33,000  Level FlightAware Transoceanic
12:45AM 33.0947 -72.0589 167° South 425 489 33,000  Level FlightAware Transoceanic
12:46AM 32.9678 -72.0249 167° South 425 489 33,000  Level FlightAware Transoceanic
12:47AM 32.8024 -71.9807 167° South 434 499 33,000  Level FlightAware Transoceanic
12:48AM 32.6843 -71.9492 167° South 434 499 33,000  Level FlightAware Transoceanic
12:49AM 32.5661 -71.9178 167° South 434 499 33,000  Level FlightAware Transoceanic
12:50AM 32.4480 -71.8866 167° South 434 499 33,000  Level FlightAware Transoceanic
12:51AM 32.3298 -71.8553 167° South 434 499 33,000  Level FlightAware Transoceanic
12:52AM 32.2116 -71.8242 167° South 434 499 33,000  Level FlightAware Transoceanic
12:53AM 32.0934 -71.7932 167° South 434 499 33,000  Level FlightAware Transoceanic
12:54AM 31.9753 -71.7622 167° South 434 499 33,000  Level FlightAware Transoceanic
12:55AM 31.8571 -71.7313 167° South 434 499 33,000  Level FlightAware Transoceanic
12:56AM 31.7389 -71.7005 168° South 434 499 33,000  Level FlightAware Transoceanic
12:57AM 31.6207 -71.6697 168° South 434 499 33,000  Level FlightAware Transoceanic
12:58AM 31.5025 -71.6391 168° South 434 499 33,000  Level FlightAware Transoceanic
12:59AM 31.3842 -71.6085 168° South 434 499 33,000  Level FlightAware Transoceanic
01:00AM 31.2660 -71.5780 168° South 434 499 33,000  Level FlightAware Transoceanic
01:01AM 31.1478 -71.5476 168° South 434 499 33,000  Level FlightAware Transoceanic
01:02AM 31.0295 -71.5172 168° South 434 499 33,000  Level FlightAware Transoceanic
01:03AM 30.9113 -71.4870 168° South 434 499 33,000  Level FlightAware Transoceanic
01:04AM 30.7930 -71.4568 168° South 434 499 33,000  Level FlightAware Transoceanic
01:05AM 30.6748 -71.4267 168° South 434 499 33,000  Level FlightAware Transoceanic
01:06AM 30.5565 -71.3966 168° South 434 499 33,000  Level FlightAware Transoceanic
01:07AM 30.4382 -71.3666 168° South 434 499 33,000  Level FlightAware Transoceanic
01:08AM 30.3199 -71.3367 168° South 434 499 33,000  Level FlightAware Transoceanic
01:09AM 30.2016 -71.3069 168° South 434 499 33,000  Level FlightAware Transoceanic
01:10AM 30.0833 -71.2771 168° South 434 499 33,000  Level FlightAware Transoceanic
01:11AM 29.9650 -71.2474 168° South 434 499 33,000  Level FlightAware Transoceanic
01:12AM 29.8467 -71.2178 168° South 434 499 33,000  Level FlightAware Transoceanic
01:13AM 29.7284 -71.1883 168° South 434 499 33,000  Level FlightAware Transoceanic
01:14AM 29.6101 -71.1588 168° South 434 499 33,000  Level FlightAware Transoceanic
01:15AM 29.4918 -71.1294 168° South 434 499 33,000  Level FlightAware Transoceanic
01:16AM 29.3734 -71.1000 168° South 434 499 33,000  Level FlightAware Transoceanic
01:17AM 29.2551 -71.0707 168° South 434 499 33,000  Level FlightAware Transoceanic
01:18AM 29.1367 -71.0415 168° South 434 499 33,000  Level FlightAware Transoceanic
01:19AM 29.0184 -71.0124 168° South 434 499 33,000  Level FlightAware Transoceanic
01:20AM 28.9000 -70.9833 168° South 434 499 33,000  Level FlightAware Transoceanic
01:20AM 28.9000 -70.9833 168° South 447 514 33,000  Level New York Oceanic (ODAPS)
01:21AM 28.7743 -70.9522 168° South 434 499 33,000  Level FlightAware Transoceanic
01:22AM 28.6486 -70.9211 168° South 434 499 33,000  Level FlightAware Transoceanic
01:23AM 28.5229 -70.8901 168° South 434 499 33,000  Level FlightAware Transoceanic
01:24AM 28.3971 -70.8592 168° South 434 499 33,000  Level FlightAware Transoceanic
01:25AM 28.2714 -70.8283 168° South 434 499 33,000  Level FlightAware Transoceanic
01:26AM 28.1457 -70.7975 168° South 434 499 33,000  Level FlightAware Transoceanic
01:27AM 27.8038 -70.7142 168° South 447 514 33,000  Level FlightAware Transoceanic
01:28AM 27.6819 -70.6846 168° South 447 514 33,000  Level FlightAware Transoceanic
01:29AM 27.5601 -70.6551 168° South 447 514 33,000  Level FlightAware Transoceanic
01:30AM 27.4382 -70.6257 168° South 447 514 33,000  Level FlightAware Transoceanic
01:31AM 27.3164 -70.5963 168° South 447 514 33,000  Level FlightAware Transoceanic
01:32AM 27.1945 -70.5670 168° South 447 514 33,000  Level FlightAware Transoceanic
01:33AM 27.0726 -70.5378 168° South 447 514 33,000  Level FlightAware Transoceanic
01:34AM 26.9508 -70.5086 168° South 447 514 33,000  Level FlightAware Transoceanic
01:35AM 26.8289 -70.4795 168° South 447 514 33,000  Level FlightAware Transoceanic
01:36AM 26.7070 -70.4504 168° South 447 514 33,000  Level FlightAware Transoceanic
01:37AM 26.5851 -70.4214 168° South 447 514 33,000  Level FlightAware Transoceanic
01:38AM 26.4632 -70.3925 168° South 447 514 33,000  Level FlightAware Transoceanic
01:39AM 26.3413 -70.3636 168° South 447 514 33,000  Level FlightAware Transoceanic
01:40AM 26.2194 -70.3348 168° South 447 514 33,000  Level FlightAware Transoceanic
01:41AM 26.0975 -70.3061 168° South 447 514 33,000  Level FlightAware Transoceanic
01:42AM 25.9756 -70.2774 168° South 447 514 33,000  Level FlightAware Transoceanic
01:43AM 25.8536 -70.2488 168° South 447 514 33,000  Level FlightAware Transoceanic
01:44AM 25.7317 -70.2202 168° South 447 514 33,000  Level FlightAware Transoceanic
01:45AM 25.6098 -70.1917 168° South 447 514 33,000  Level FlightAware Transoceanic
01:46AM 25.4878 -70.1632 168° South 447 514 33,000  Level FlightAware Transoceanic
01:47AM 25.3659 -70.1348 168° South 447 514 33,000  Level FlightAware Transoceanic
01:47AM 25.2647 -70.1589 176° South 454 522 33,000  Level Miami Center
01:48AM 25.2439 -70.1065 168° South 447 514 33,000  Level FlightAware Transoceanic
01:48AM 25.1417 -70.1175 163° South 461 531 33,000  Level Miami Center
01:49AM 25.1220 -70.0782 168° South 447 514 33,000  Level FlightAware Transoceanic
01:49AM 25.0172 -70.0900 169° South 455 524 33,000  Level Miami Center
01:50AM 25.0000 -70.0500 176° South 447 514 33,000  Level FlightAware Transoceanic
01:50AM 24.8894 -70.0786 175° South 455 524 33,000  Level Miami Center
01:51AM 24.8750 -70.0415 176° South 447 514 33,000  Level FlightAware Transoceanic
01:51AM 24.7644 -70.0811 181° South 449 517 33,000  Level Miami Center
01:52AM 24.7500 -70.0331 176° South 447 514 33,000  Level FlightAware Transoceanic
01:52AM 24.6367 -70.0719 176° South 454 522 33,000  Level Miami Center
01:53AM 24.5136 -70.0697 179° South 460 529 33,000  Level Miami Center
01:54AM 24.3839 -70.0608 176° South 460 529 33,000  Level Miami Center
01:55AM 24.2606 -70.0583 179° South 460 529 33,000  Level Miami Center
01:56AM 24.1308 -70.0497 177° South 460 529 33,000  Level Miami Center
01:57AM 24.0050 -70.0361 174° South 460 529 33,000  Level Miami Center
01:58AM 23.8953 -69.9647 149° Southeast 455 524 33,000  Level Miami Center
01:59AM 23.7875 -69.8892 147° Southeast 439 505 33,000  Level Miami Center
02:00AM 23.6797 -69.8136 147° Southeast 461 531 33,000  Level Miami Center
02:01AM 23.5739 -69.7403 148° Southeast 461 531 33,000  Level Miami Center
02:02AM 23.4636 -69.6583 146° Southeast 467 537 33,000  Level Miami Center
02:03AM 23.3597 -69.5828 146° Southeast 473 544 33,000  Level Miami Center
02:04AM 23.2456 -69.5033 147° Southeast 467 537 33,100  Climbing Miami Center
02:05AM 23.1353 -69.4264 147° Southeast 468 539 33,000 -60 Descending Miami Center
02:06AM 23.0336 -69.3511 146° Southeast 463 533 33,000  Level Miami Center
02:07AM 22.9233 -69.2719 147° Southeast 463 533 33,000  Level Miami Center
02:08AM 22.8172 -69.1972 147° Southeast 463 533 33,000  Level Miami Center
02:09AM 22.7114 -69.1228 147° Southeast 458 527 33,000  Level Miami Center
02:10AM 22.6075 -69.0503 147° Southeast 458 527 33,000  Level Miami Center
02:11AM 22.5231 -68.9500 132° Southeast 447 514 33,000  Level Miami Center
02:12AM 22.4422 -68.8358 127° Southeast 459 528 33,000  Level Miami Center
02:13AM 22.3653 -68.7264 127° Southeast 464 534 33,000  Level Miami Center
02:14AM 22.2928 -68.6167 126° Southeast 464 534 33,000  Level Miami Center
02:15AM 22.2239 -68.4981 122° Southeast 462 532 33,000  Level Miami Center
02:16AM 22.1675 -68.3831 118° Southeast 457 526 33,000  Level Miami Center
02:17AM 22.1047 -68.2664 120° Southeast 447 514 33,000  Level Miami Center
02:18AM 22.0394 -68.1456 120° Southeast 447 514 33,000  Level Miami Center
02:19AM 21.9844 -68.0219 116° Southeast 457 526 33,100  Climbing Miami Center
02:20AM 21.9253 -67.9008 118° Southeast 457 526 33,000 -60 Descending Miami Center
02:21AM 21.8642 -67.7844 119° Southeast 457 526 33,000  Level Miami Center
02:22AM 21.7617 -67.7047 144° Southeast 447 514 33,000  Level Miami Center
02:23AM 21.6511 -67.6342 149° Southeast 447 514 33,000  Level Miami Center
02:24AM 21.5469 -67.5614 147° Southeast 452 520 33,000  Level Miami Center
02:25AM 21.4447 -67.4883 146° Southeast 452 520 33,100  Climbing Miami Center
02:26AM 21.3000 -67.3833 146° Southeast 440 506 33,000 -60 Descending San Juan Center
02:27AM 21.1667 -67.3000 150° Southeast 440 506 33,000  Level San Juan Center
02:28AM 21.0833 -67.2500 151° Southeast 440 506 33,000  Level San Juan Center
02:29AM 20.9667 -67.1667 146° Southeast 460 529 33,000  Level San Juan Center
02:30AM 20.8500 -67.1167 158° South 440 506 33,000  Level San Juan Center
02:31AM 20.7333 -67.0833 165° South 440 506 33,000  Level San Juan Center
02:32AM 20.6167 -67.0333 158° South 440 506 33,000  Level San Juan Center
02:34AM 20.5167 -67.0000 163° South 440 506 33,000  Level San Juan Center
02:35AM 20.3833 -66.9500 161° South 440 506 33,000  Level San Juan Center
02:36AM 20.2667 -66.9000 158° South 460 529 33,000 -540 Level San Juan Center
02:37AM 20.1500 -66.8500 158° South 440 506 32,000 -1,560 Descending San Juan Center
02:38AM 20.0333 -66.8000 158° South 430 495 29,900 -2,160 Descending San Juan Center
02:39AM 19.9167 -66.7667 165° South 450 518 27,700 -2,160 Descending San Juan Center
02:40AM 19.8000 -66.7167 158° South 430 495 25,600 -2,100 Descending San Juan Center
02:41AM 19.6833 -66.6833 165° South 430 495 23,500 -2,100 Descending San Juan Center
02:43AM 19.4667 -66.5833 156° South 420 483 19,300 -2,160 Descending San Juan Center
02:44AM 19.3667 -66.5500 163° South 390 449 17,100 -2,100 Descending San Juan Center
02:45AM 19.2667 -66.5167 163° South 370 426 15,100 -1,980 Descending San Juan Center
02:46AM 19.1667 -66.4667 155° Southeast 340 391 13,200 -1,800 Descending San Juan Center
02:47AM 19.0833 -66.4333 159° South 360 414 11,500 -1,440 Descending San Juan Center
02:48AM 19.0000 -66.4000 159° South 320 368 10,300 -1,080 Descending San Juan Center
02:49AM 18.9167 -66.3833 169° South 280 322 9,400 -1,020 Descending San Juan Center
02:50AM 18.8500 -66.3500 155° Southeast 270 311 8,300 -1,140 Descending San Juan Center
02:51AM 18.7833 -66.3333 167° South 250 288 7,200 -1,140 Descending San Juan Center
02:52AM 18.7167 -66.3000 155° Southeast 250 288 6,100 -1,500 Descending San Juan Center
02:53AM 18.6500 -66.2667 155° Southeast 260 299 4,200 -1,680 Descending San Juan Center
02:54AM 18.5833 -66.2500 167° South 260 299 2,800 -1,140 Descending San Juan Center
02:55AM 18.5167 -66.2167 155° Southeast 250 288 2,000 -420 Descending San Juan Center
02:56AM 18.4667 -66.1833 148° Southeast 210 242 2,000  Level San Juan Center
02:57AM 18.4333 -66.1500 137° Southeast 180 207 2,000 -240 Level San Juan Center
02:58AM 18.4333 -66.1000 90° East 160 184 1,600 -600 Descending San Juan Center
02:59AM 18.4333 -66.0500 90° East 120 138 900 -720 Descending San Juan Center
03:00AM 18.4333 -66.0167 90° East 140 161 200 -720 Descending San Juan Center